Terminal Aerodrome Forecast
Issued by NWS

Home | Current Version | Previous Version | Text Only | Print | Product List | Glossary On
Versions: 1 2 3 4 5 6 7 8 9 10 11 12 13
000
FTUS42 TJSJ 040525
TAFJPS
TAF
TJPS 040525Z 0406/0506 VRB04KT P6SM FEW030
     FM041430 16010KT P6SM SCT030 SCT060
     FM041730 16010KT P6SM VCTS SCT025CB BKN050
     FM042230 10007KT P6SM FEW025=

USA.gov is the U.S. government's official web portal to all federal, state and local government web resources and services.